Time;durP1;ratioP1;P1;durP2;ratioP2;P2;SDS_P1;SDS_P2;PMS_P1;PMS_P2;Temp;Humidity;BMP_temperature;BMP_pressure;BME280_temperature;BME280_humidity;BME280_pressure;Samples;Min_cycle;Max_cycle;Signal;HPM_P1;HPM_P2
2020/12/14 00:02:13;;;;;;;14.83;13.43;;;6.60;99.90;;;;;;5118409;27;20465;-74
2020/12/14 00:04:40;;;;;;;15.93;13.67;;;6.60;99.90;;;;;;5119266;27;20458;-74
2020/12/14 00:07:08;;;;;;;14.97;13.40;;;6.60;99.90;;;;;;5120701;27;20828;-74
2020/12/14 00:09:34;;;;;;;15.00;13.50;;;6.70;99.90;;;;;;5123802;27;20461;-74
2020/12/14 00:12:01;;;;;;;15.17;13.77;;;6.60;99.90;;;;;;5117852;27;20464;-74
2020/12/14 00:14:28;;;;;;;15.30;14.03;;;6.60;99.90;;;;;;5118736;27;20456;-74
2020/12/14 00:16:56;;;;;;;14.07;13.17;;;6.70;99.90;;;;;;5119361;27;20457;-74
2020/12/14 00:19:23;;;;;;;14.93;13.83;;;6.70;99.90;;;;;;5122066;27;20486;-74
2020/12/14 00:21:51;;;;;;;14.90;13.80;;;6.60;99.90;;;;;;5119661;27;20508;-76
2020/12/14 00:24:18;;;;;;;14.03;13.13;;;6.60;99.90;;;;;;5123584;27;20466;-75
2020/12/14 00:26:44;;;;;;;15.07;13.70;;;6.50;99.90;;;;;;5118492;27;20476;-74
2020/12/14 00:29:10;;;;;;;15.10;13.70;;;6.50;99.90;;;;;;5120863;27;20467;-76
2020/12/14 00:31:37;;;;;;;14.50;13.40;;;6.50;99.90;;;;;;5119988;27;20500;-74
2020/12/14 00:34:05;;;;;;;15.50;14.00;;;6.40;99.90;;;;;;5120664;27;20464;-77
2020/12/14 00:36:31;;;;;;;14.70;13.50;;;6.50;99.90;;;;;;5118634;27;20492;-74
2020/12/14 00:38:58;;;;;;;16.07;14.50;;;6.50;99.90;;;;;;5118897;27;20465;-77
2020/12/14 00:41:24;;;;;;;14.53;13.40;;;6.50;99.90;;;;;;5122862;27;20473;-76
2020/12/14 00:43:50;;;;;;;14.33;13.07;;;6.50;99.90;;;;;;5121306;27;20468;-73
2020/12/14 00:46:17;;;;;;;17.30;14.23;;;6.50;99.90;;;;;;5119437;27;20468;-76
2020/12/14 00:48:45;;;;;;;15.20;13.83;;;6.60;99.90;;;;;;5118596;27;20461;-75
2020/12/14 00:51:12;;;;;;;15.50;14.17;;;6.60;99.90;;;;;;5119579;27;20473;-74
2020/12/14 00:53:39;;;;;;;14.33;13.30;;;6.60;99.90;;;;;;5125779;27;20448;-75
2020/12/14 00:56:06;;;;;;;13.97;13.07;;;6.80;99.90;;;;;;5118247;28;20823;-75
2020/12/14 00:58:33;;;;;;;15.50;14.07;;;6.80;99.90;;;;;;5118299;28;20476;-73
2020/12/14 01:01:00;;;;;;;14.20;13.20;;;6.80;99.90;;;;;;5118563;28;20965;-76
2020/12/14 01:03:26;;;;;;;15.43;14.43;;;6.90;99.90;;;;;;5121844;28;20484;-77
2020/12/14 01:05:53;;;;;;;14.40;13.50;;;6.90;99.90;;;;;;5120568;28;20456;-74
2020/12/14 01:08:21;;;;;;;14.77;13.77;;;6.90;99.90;;;;;;5125232;28;20462;-73
2020/12/14 01:10:47;;;;;;;13.90;12.67;;;6.90;99.90;;;;;;5120595;28;20971;-74
2020/12/14 01:13:14;;;;;;;15.03;13.00;;;7.00;99.90;;;;;;5124799;28;20455;-73
2020/12/14 01:15:40;;;;;;;13.20;12.40;;;7.00;99.90;;;;;;5126550;28;20457;-74
2020/12/14 01:18:07;;;;;;;13.63;12.70;;;7.00;99.90;;;;;;5120161;28;20824;-74
2020/12/14 01:20:33;;;;;;;13.47;12.37;;;7.00;99.90;;;;;;5120495;28;20469;-74
2020/12/14 01:23:00;;;;;;;14.50;13.50;;;7.00;99.90;;;;;;5117409;28;20496;-73
2020/12/14 01:25:28;;;;;;;14.40;13.30;;;7.00;99.90;;;;;;5124949;27;20457;-74
2020/12/14 01:27:54;;;;;;;14.77;13.67;;;6.90;99.90;;;;;;5126198;27;20472;-74
2020/12/14 01:30:21;;;;;;;14.53;13.23;;;6.90;99.90;;;;;;5126219;27;20475;-74
2020/12/14 01:32:47;;;;;;;14.30;13.40;;;6.80;99.90;;;;;;5125689;27;20818;-73
2020/12/14 01:35:13;;;;;;;14.30;13.20;;;6.70;99.90;;;;;;5127577;27;20466;-74
2020/12/14 01:37:40;;;;;;;14.10;13.10;;;6.70;99.90;;;;;;5124171;27;20451;-74
2020/12/14 01:40:06;;;;;;;14.60;13.30;;;6.60;99.90;;;;;;5119548;27;20464;-74
2020/12/14 01:42:37;;;;;;;14.10;13.03;;;6.60;99.90;;;;;;5128155;27;20603;-74
2020/12/14 01:45:04;;;;;;;16.40;13.77;;;6.70;99.90;;;;;;5125441;27;20478;-74
2020/12/14 01:47:35;;;;;;;13.07;12.30;;;6.60;99.90;;;;;;5123230;27;20452;-74
2020/12/14 01:50:01;;;;;;;13.83;13.03;;;6.70;99.90;;;;;;5123437;27;20456;-74
2020/12/14 01:52:28;;;;;;;14.60;13.33;;;6.60;99.90;;;;;;5127985;27;20453;-73
2020/12/14 01:54:58;;;;;;;13.87;12.73;;;6.50;99.90;;;;;;5121288;27;20468;-74
2020/12/14 01:57:25;;;;;;;15.30;13.50;;;6.50;99.90;;;;;;5124131;27;20459;-74
2020/12/14 01:59:54;;;;;;;13.70;12.60;;;6.40;99.90;;;;;;5125513;27;20480;-74
2020/12/14 02:02:20;;;;;;;14.03;12.97;;;6.40;99.90;;;;;;5123777;27;20495;-74
2020/12/14 02:04:46;;;;;;;14.67;13.30;;;6.30;99.90;;;;;;5120774;27;20470;-73
2020/12/14 02:07:12;;;;;;;14.80;13.37;;;6.30;99.90;;;;;;5119821;27;20467;-74
2020/12/14 02:09:39;;;;;;;18.33;13.50;;;6.20;99.90;;;;;;5117626;27;20460;-74
2020/12/14 02:12:06;;;;;;;14.40;12.97;;;6.20;99.90;;;;;;5123045;27;20452;-74
2020/12/14 02:14:36;;;;;;;17.40;13.50;;;6.20;99.90;;;;;;5117984;27;20452;-74
2020/12/14 02:17:04;;;;;;;14.20;12.80;;;6.10;99.90;;;;;;5124587;27;20502;-74
2020/12/14 02:19:31;;;;;;;14.80;13.50;;;6.00;99.90;;;;;;5119210;27;20552;-74
2020/12/14 02:21:58;;;;;;;13.97;13.07;;;6.00;99.90;;;;;;5120919;27;20493;-74
2020/12/14 02:24:25;;;;;;;14.70;13.37;;;6.00;99.90;;;;;;5116857;27;20995;-74
2020/12/14 02:26:52;;;;;;;14.30;13.33;;;6.00;99.90;;;;;;5114704;27;20453;-74
2020/12/14 02:29:19;;;;;;;15.23;14.00;;;6.00;99.90;;;;;;5121427;27;20543;-74
2020/12/14 02:31:46;;;;;;;16.13;13.40;;;6.00;99.90;;;;;;5115896;27;20461;-73
2020/12/14 02:34:12;;;;;;;15.23;13.20;;;6.10;99.90;;;;;;5121078;27;20970;-74
2020/12/14 02:36:41;;;;;;;17.20;13.27;;;6.10;99.90;;;;;;5123111;27;20535;-74
2020/12/14 02:39:07;;;;;;;14.70;13.40;;;6.10;99.90;;;;;;5118921;27;20963;-74
2020/12/14 02:41:35;;;;;;;15.20;13.67;;;6.10;99.90;;;;;;5117557;27;20453;-74
2020/12/14 02:44:01;;;;;;;14.73;13.73;;;6.10;99.90;;;;;;5122855;27;20813;-74
2020/12/14 02:46:27;;;;;;;14.77;13.70;;;6.10;99.90;;;;;;5123105;27;20456;-74
2020/12/14 02:48:54;;;;;;;14.83;13.50;;;6.20;99.90;;;;;;5117942;27;20464;-74
2020/12/14 02:51:21;;;;;;;14.40;13.17;;;6.20;99.90;;;;;;5119172;27;20524;-74
2020/12/14 02:53:47;;;;;;;15.13;13.67;;;6.30;99.90;;;;;;5118010;27;20464;-73
2020/12/14 02:56:15;;;;;;;14.50;13.50;;;6.30;99.90;;;;;;5120108;27;20546;-74
2020/12/14 02:58:43;;;;;;;16.10;13.73;;;6.30;99.90;;;;;;5122267;27;21053;-74
2020/12/14 03:01:10;;;;;;;14.30;13.40;;;6.30;99.90;;;;;;5123920;27;20854;-74
2020/12/14 03:03:36;;;;;;;15.73;14.20;;;6.30;99.90;;;;;;5122953;27;20843;-74
2020/12/14 03:06:03;;;;;;;15.20;14.07;;;6.20;99.90;;;;;;5124365;27;20460;-74
2020/12/14 03:08:30;;;;;;;16.60;13.60;;;6.20;99.90;;;;;;5120044;27;20460;-74
2020/12/14 03:10:56;;;;;;;14.07;13.17;;;6.20;99.90;;;;;;5125478;27;20461;-74
2020/12/14 03:13:23;;;;;;;14.90;13.60;;;6.10;99.90;;;;;;5128747;27;20943;-74
2020/12/14 03:15:50;;;;;;;14.10;13.20;;;6.20;99.90;;;;;;5121067;27;20482;-74
2020/12/14 03:18:17;;;;;;;14.20;13.20;;;6.20;99.90;;;;;;5122925;27;20460;-74
2020/12/14 03:20:43;;;;;;;14.80;13.60;;;6.10;99.90;;;;;;5125145;27;20468;-74
2020/12/14 03:23:10;;;;;;;14.50;13.60;;;6.10;99.90;;;;;;5122525;27;20489;-74
2020/12/14 03:25:36;;;;;;;15.57;14.10;;;6.10;99.90;;;;;;5124604;27;20551;-74
2020/12/14 03:28:02;;;;;;;15.30;14.30;;;6.00;99.90;;;;;;5120107;27;20461;-74
2020/12/14 03:30:29;;;;;;;15.43;13.93;;;6.10;99.90;;;;;;5121770;27;21007;-74
2020/12/14 03:32:56;;;;;;;15.27;14.13;;;6.00;99.90;;;;;;5120923;27;20465;-74
2020/12/14 03:35:23;;;;;;;15.07;14.20;;;6.00;99.90;;;;;;5127970;27;20771;-74
2020/12/14 03:37:49;;;;;;;14.40;13.40;;;6.00;99.90;;;;;;5123317;27;20477;-74
2020/12/14 03:40:16;;;;;;;14.13;12.80;;;6.00;99.90;;;;;;5122865;27;20467;-74
2020/12/14 03:42:42;;;;;;;14.97;13.70;;;6.10;99.90;;;;;;5121301;27;20491;-74
2020/12/14 03:45:09;;;;;;;15.23;13.97;;;6.20;99.90;;;;;;5124604;27;20824;-74
2020/12/14 03:47:35;;;;;;;16.40;13.40;;;6.30;99.90;;;;;;5126717;27;20543;-73
2020/12/14 03:50:03;;;;;;;14.83;13.40;;;6.30;99.90;;;;;;5124519;27;20463;-74
2020/12/14 03:52:29;;;;;;;14.23;13.40;;;6.40;99.90;;;;;;5121015;27;20478;-74
2020/12/14 03:54:56;;;;;;;14.63;13.60;;;6.40;99.90;;;;;;5125816;27;20457;-73
2020/12/14 03:57:22;;;;;;;14.23;13.23;;;6.40;99.90;;;;;;5125520;27;20472;-74
2020/12/14 03:59:48;;;;;;;13.20;12.50;;;6.40;99.90;;;;;;5117845;27;20485;-74
2020/12/14 04:02:15;;;;;;;14.50;13.40;;;6.40;99.90;;;;;;5119359;27;20483;-74
2020/12/14 04:04:41;;;;;;;13.93;13.13;;;6.40;99.90;;;;;;5120794;27;20551;-74
2020/12/14 04:07:08;;;;;;;13.50;12.60;;;6.40;99.90;;;;;;5119499;27;20465;-74
2020/12/14 04:09:35;;;;;;;14.10;12.90;;;6.40;99.90;;;;;;5117916;27;20476;-74
2020/12/14 04:12:02;;;;;;;13.80;12.73;;;6.40;99.90;;;;;;5115153;27;20462;-74
2020/12/14 04:14:28;;;;;;;14.07;12.83;;;6.40;99.90;;;;;;5123392;27;20456;-73
2020/12/14 04:16:54;;;;;;;14.33;13.30;;;6.40;99.90;;;;;;5118123;27;20467;-74
2020/12/14 04:19:24;;;;;;;13.37;12.37;;;6.50;99.90;;;;;;5121105;27;20971;-74
2020/12/14 04:21:50;;;;;;;13.30;12.50;;;6.50;99.90;;;;;;5113031;27;20464;-74
2020/12/14 04:24:18;;;;;;;13.80;13.00;;;6.50;99.90;;;;;;5120482;27;20461;-74
2020/12/14 04:26:44;;;;;;;18.37;13.23;;;6.50;99.90;;;;;;5122192;27;20496;-74
2020/12/14 04:29:11;;;;;;;13.90;12.50;;;6.50;99.90;;;;;;5117643;27;21061;-74
2020/12/14 04:31:37;;;;;;;16.50;13.37;;;6.50;99.90;;;;;;5121287;27;20481;-74
2020/12/14 04:34:05;;;;;;;12.93;11.80;;;6.60;99.90;;;;;;5116771;27;20462;-74
2020/12/14 04:36:32;;;;;;;13.27;12.37;;;6.60;99.90;;;;;;5115195;27;20826;-73
2020/12/14 04:38:58;;;;;;;12.67;11.97;;;6.60;99.90;;;;;;5118326;27;20973;-74
2020/12/14 04:41:25;;;;;;;24.73;13.87;;;6.60;99.90;;;;;;5118691;27;20468;-74
2020/12/14 04:43:52;;;;;;;13.00;12.10;;;6.60;99.90;;;;;;5118038;27;20499;-74
2020/12/14 04:46:19;;;;;;;14.03;12.90;;;6.50;99.90;;;;;;5119152;27;20464;-74
2020/12/14 04:48:46;;;;;;;14.17;13.17;;;6.60;99.90;;;;;;5115966;27;20519;-74
2020/12/14 04:51:13;;;;;;;14.87;13.47;;;6.50;99.90;;;;;;5120629;27;20464;-74
2020/12/14 04:53:41;;;;;;;13.17;12.20;;;6.50;99.90;;;;;;5120302;27;20460;-74
2020/12/14 04:56:10;;;;;;;13.03;12.23;;;6.50;99.90;;;;;;5117576;27;20459;-74
2020/12/14 04:58:39;;;;;;;13.20;12.43;;;6.40;99.90;;;;;;5121915;27;20482;-74
2020/12/14 05:01:06;;;;;;;13.03;12.30;;;6.40;99.90;;;;;;5120423;28;20464;-74
2020/12/14 05:03:32;;;;;;;13.43;12.50;;;6.40;99.90;;;;;;5121988;28;20485;-74
2020/12/14 05:05:59;;;;;;;13.00;12.40;;;6.30;99.90;;;;;;5120998;28;20456;-74
2020/12/14 05:08:26;;;;;;;13.33;12.63;;;6.30;99.90;;;;;;5121794;28;20471;-74
2020/12/14 05:10:52;;;;;;;13.00;12.30;;;6.20;99.90;;;;;;5118393;28;20465;-74
2020/12/14 05:13:19;;;;;;;14.40;13.20;;;6.10;99.90;;;;;;5121938;28;20483;-74
2020/12/14 05:15:47;;;;;;;13.47;12.77;;;6.10;99.90;;;;;;5122834;28;20471;-73
2020/12/14 05:18:15;;;;;;;13.23;12.53;;;6.10;99.90;;;;;;5123539;28;20468;-74
2020/12/14 05:20:43;;;;;;;14.27;13.30;;;6.10;99.90;;;;;;5122662;28;20465;-74
2020/12/14 05:23:10;;;;;;;14.30;13.50;;;6.10;99.90;;;;;;5121686;28;20488;-74
2020/12/14 05:25:37;;;;;;;13.67;13.00;;;6.00;99.90;;;;;;5117715;28;20464;-74
2020/12/14 05:28:11;;;;;;;13.03;12.40;;;6.00;99.90;;;;;;5124331;28;20462;-73
2020/12/14 05:30:40;;;;;;;13.07;12.37;;;6.00;99.90;;;;;;5122899;28;20479;-74
2020/12/14 05:33:08;;;;;;;13.43;12.43;;;6.00;99.90;;;;;;5117916;28;20473;-74
2020/12/14 05:35:37;;;;;;;13.30;12.60;;;6.00;99.90;;;;;;5125314;27;20487;-74
2020/12/14 05:38:14;;;;;;;13.57;12.67;;;6.00;99.90;;;;;;5122282;28;20460;-73
2020/12/14 05:40:41;;;;;;;13.23;12.53;;;5.90;99.90;;;;;;5122681;28;20452;-73
2020/12/14 05:43:12;;;;;;;13.43;12.23;;;5.90;99.90;;;;;;5123033;28;20541;-73
2020/12/14 05:45:39;;;;;;;13.77;13.07;;;5.90;99.90;;;;;;5122090;28;20452;-73
2020/12/14 05:48:22;;;;;;;13.90;12.70;;;5.90;99.90;;;;;;5122931;28;20457;-73
2020/12/14 05:50:50;;;;;;;12.60;12.00;;;5.90;99.90;;;;;;5126605;28;21009;-73
2020/12/14 05:53:19;;;;;;;13.33;12.63;;;5.90;99.90;;;;;;5120457;28;20957;-73
2020/12/14 05:55:46;;;;;;;12.80;12.20;;;5.90;99.90;;;;;;5122583;28;20870;-73
2020/12/14 05:58:14;;;;;;;13.77;12.97;;;5.90;99.90;;;;;;5118607;28;20889;-73
2020/12/14 06:00:43;;;;;;;14.53;13.63;;;5.90;99.90;;;;;;5121728;28;20452;-74
2020/12/14 06:03:10;;;;;;;12.97;12.17;;;5.90;99.90;;;;;;5119410;28;21075;-74
2020/12/14 06:05:38;;;;;;;13.70;12.80;;;6.00;99.90;;;;;;5122657;28;20505;-73
2020/12/14 06:08:25;;;;;;;13.80;12.70;;;6.00;99.90;;;;;;5115130;28;20820;-73
2020/12/14 06:10:58;;;;;;;12.57;11.80;;;6.00;99.90;;;;;;5121453;27;20460;-74
2020/12/14 06:13:30;;;;;;;12.87;12.27;;;6.20;99.90;;;;;;5122406;27;20472;-73
2020/12/14 06:16:00;;;;;;;13.40;12.50;;;6.20;99.90;;;;;;5120285;27;20552;-73
2020/12/14 06:18:34;;;;;;;13.93;12.80;;;6.30;99.90;;;;;;5123928;27;20453;-73
2020/12/14 06:21:01;;;;;;;13.83;12.90;;;6.40;99.90;;;;;;5123998;27;20480;-73
2020/12/14 06:23:36;;;;;;;13.07;12.40;;;6.40;99.90;;;;;;5120401;27;20487;-73
2020/12/14 06:26:05;;;;;;;12.80;12.10;;;6.50;99.90;;;;;;5118875;27;20460;-73
2020/12/14 06:28:34;;;;;;;13.10;12.40;;;6.60;99.90;;;;;;5123263;27;20498;-73
2020/12/14 06:31:01;;;;;;;14.07;13.00;;;6.60;99.90;;;;;;5123300;27;20472;-73
2020/12/14 06:33:36;;;;;;;13.60;12.80;;;6.70;99.90;;;;;;5124822;27;20460;-73
2020/12/14 06:36:17;;;;;;;13.47;12.53;;;6.70;99.90;;;;;;5120286;27;20471;-73
2020/12/14 06:38:44;;;;;;;14.37;13.47;;;6.70;99.90;;;;;;5123102;27;20472;-73
2020/12/14 06:41:12;;;;;;;12.87;12.13;;;6.80;99.90;;;;;;5124941;27;20464;-73
2020/12/14 06:43:39;;;;;;;12.60;11.97;;;6.90;99.90;;;;;;5123480;27;20475;-73
2020/12/14 06:46:06;;;;;;;12.53;11.90;;;6.90;99.90;;;;;;5121026;27;20456;-73
2020/12/14 06:48:42;;;;;;;13.00;12.30;;;6.90;99.90;;;;;;5123399;27;20457;-73
2020/12/14 06:51:10;;;;;;;13.90;12.63;;;6.90;99.90;;;;;;5125363;27;21038;-73
2020/12/14 06:53:42;;;;;;;13.30;12.50;;;6.90;99.90;;;;;;5123538;27;20459;-74
2020/12/14 06:56:10;;;;;;;18.27;16.93;;;6.90;99.90;;;;;;5121967;27;20460;-76
2020/12/14 06:58:40;;;;;;;19.63;18.53;;;7.00;99.90;;;;;;5123232;27;21066;-75
2020/12/14 07:01:38;;;;;;;22.20;20.80;;;7.00;99.90;;;;;;5122319;27;20522;-74
2020/12/14 07:04:07;;;;;;;22.63;21.10;;;6.80;99.90;;;;;;5121358;27;20503;-77
2020/12/14 07:06:34;;;;;;;22.50;21.00;;;6.80;99.90;;;;;;5121466;27;20468;-74
2020/12/14 07:09:20;;;;;;;22.33;20.83;;;6.70;99.90;;;;;;5126192;27;20466;-75
2020/12/14 07:11:47;;;;;;;21.80;20.27;;;6.70;99.90;;;;;;5119092;27;21001;-74
2020/12/14 07:14:27;;;;;;;21.90;20.40;;;6.60;99.90;;;;;;5124902;27;20857;-74
2020/12/14 07:16:54;;;;;;;21.07;19.60;;;6.60;99.90;;;;;;5126091;27;20522;-74
2020/12/14 07:19:26;;;;;;;22.07;20.57;;;6.50;99.90;;;;;;5125624;27;20812;-74
2020/12/14 07:21:56;;;;;;;21.10;19.70;;;6.50;99.90;;;;;;5123836;27;20462;-74
2020/12/14 07:24:30;;;;;;;21.47;19.87;;;6.50;99.90;;;;;;5117985;27;20500;-74
2020/12/14 07:26:56;;;;;;;21.37;19.97;;;6.50;99.90;;;;;;5120202;27;20461;-74
2020/12/14 07:29:23;;;;;;;20.67;19.27;;;6.50;99.90;;;;;;5117686;27;20457;-74
2020/12/14 07:31:49;;;;;;;20.63;19.30;;;6.50;99.90;;;;;;5122481;27;20502;-76
2020/12/14 07:34:16;;;;;;;20.67;19.23;;;6.50;99.90;;;;;;5123029;27;20462;-73
2020/12/14 07:36:43;;;;;;;20.57;19.27;;;6.50;99.90;;;;;;5121911;27;20456;-77
2020/12/14 07:39:09;;;;;;;20.30;19.00;;;6.50;99.90;;;;;;5117072;27;20460;-76
2020/12/14 07:41:36;;;;;;;20.80;19.00;;;6.50;99.90;;;;;;5121074;27;20479;-75
2020/12/14 07:44:04;;;;;;;20.23;18.80;;;6.60;99.90;;;;;;5119452;27;20472;-75
2020/12/14 07:46:32;;;;;;;20.13;18.40;;;6.60;99.90;;;;;;5117915;27;20456;-75
2020/12/14 07:49:06;;;;;;;20.77;19.27;;;6.60;99.90;;;;;;5114639;27;20502;-77
2020/12/14 07:51:33;;;;;;;20.37;19.07;;;6.60;99.90;;;;;;5114687;27;20461;-77
2020/12/14 07:54:06;;;;;;;20.50;18.90;;;6.60;99.90;;;;;;5112385;27;20474;-77
2020/12/14 07:56:52;;;;;;;21.07;19.53;;;6.60;99.90;;;;;;5117429;27;20454;-78
2020/12/14 07:59:23;;;;;;;21.10;19.37;;;6.70;99.90;;;;;;5116772;27;20485;-75
2020/12/14 08:01:50;;;;;;;21.20;19.60;;;6.70;99.90;;;;;;5119408;27;20458;-73
2020/12/14 08:04:28;;;;;;;20.80;19.20;;;6.70;99.90;;;;;;5118031;27;20685;-75
2020/12/14 08:06:56;;;;;;;20.10;18.80;;;6.80;99.90;;;;;;5118283;27;22497;-75
2020/12/14 08:09:30;;;;;;;21.13;19.80;;;6.80;99.90;;;;;;5113985;27;20465;-76
2020/12/14 08:11:57;;;;;;;20.97;19.67;;;6.90;99.90;;;;;;5114796;27;20460;-73
2020/12/14 08:14:25;;;;;;;20.80;18.97;;;6.90;99.90;;;;;;5116211;27;20469;-74
2020/12/14 08:16:52;;;;;;;21.13;19.53;;;6.90;99.90;;;;;;5114908;27;20475;-74
2020/12/14 08:19:20;;;;;;;21.97;19.93;;;7.00;99.90;;;;;;5116584;27;20454;-74
2020/12/14 08:22:04;;;;;;;20.83;19.43;;;7.10;99.90;;;;;;5115919;27;20459;-74
2020/12/14 08:24:32;;;;;;;21.50;20.00;;;7.10;99.90;;;;;;5121671;27;20467;-73
2020/12/14 08:27:00;;;;;;;22.83;20.93;;;7.10;99.90;;;;;;5122845;27;20471;-73
2020/12/14 08:29:29;;;;;;;22.67;21.10;;;7.10;99.90;;;;;;5116055;27;20900;-74
2020/12/14 08:31:58;;;;;;;22.73;21.03;;;7.20;99.90;;;;;;5122686;27;20495;-74
2020/12/14 08:34:28;;;;;;;21.00;19.60;;;7.20;99.90;;;;;;5119085;27;20453;-74
2020/12/14 08:36:54;;;;;;;22.07;20.47;;;7.20;99.90;;;;;;5116706;27;20822;-74
2020/12/14 08:39:21;;;;;;;22.67;20.70;;;7.30;99.90;;;;;;5119486;27;20452;-74
2020/12/14 08:42:01;;;;;;;21.90;20.40;;;7.50;99.90;;;;;;5118478;27;20474;-74
2020/12/14 08:44:27;;;;;;;21.90;20.33;;;7.40;99.90;;;;;;5115064;27;20496;-74
2020/12/14 08:46:55;;;;;;;21.30;19.63;;;7.50;99.90;;;;;;5113453;27;20482;-74
2020/12/14 08:49:22;;;;;;;21.23;19.80;;;7.50;99.90;;;;;;5113650;28;20968;-74
2020/12/14 08:51:49;;;;;;;21.63;19.93;;;7.50;99.90;;;;;;5116905;27;20544;-74
2020/12/14 08:54:17;;;;;;;20.83;19.23;;;7.50;99.90;;;;;;5113607;27;20459;-73
2020/12/14 08:56:45;;;;;;;20.53;19.00;;;7.60;99.90;;;;;;5117941;27;20484;-74
2020/12/14 08:59:17;;;;;;;19.93;18.67;;;7.60;99.90;;;;;;5115977;28;20482;-74
2020/12/14 09:01:55;;;;;;;21.37;19.77;;;7.60;99.90;;;;;;5122613;28;20462;-74
2020/12/14 09:04:27;;;;;;;22.63;20.87;;;7.70;99.90;;;;;;5118498;28;20484;-73
2020/12/14 09:06:54;;;;;;;21.30;19.80;;;7.70;99.90;;;;;;5117572;28;20958;-73
2020/12/14 09:09:29;;;;;;;21.47;19.77;;;7.70;99.90;;;;;;5111596;28;20459;-73
2020/12/14 09:11:57;;;;;;;22.33;20.73;;;7.80;99.90;;;;;;5117526;28;20540;-73
2020/12/14 09:14:26;;;;;;;21.83;20.13;;;7.80;99.90;;;;;;5121917;28;20451;-74
2020/12/14 09:16:54;;;;;;;21.83;20.10;;;7.80;99.90;;;;;;5125700;28;20452;-74
2020/12/14 09:19:21;;;;;;;21.30;19.90;;;7.90;99.90;;;;;;5115830;28;20466;-74
2020/12/14 09:21:47;;;;;;;21.50;19.70;;;7.90;99.90;;;;;;5117635;28;20460;-74
2020/12/14 09:24:17;;;;;;;22.47;20.87;;;7.90;99.90;;;;;;5117088;28;20506;-74
2020/12/14 09:26:45;;;;;;;21.17;19.80;;;7.90;99.90;;;;;;5110116;28;20484;-74
2020/12/14 09:29:12;;;;;;;20.57;19.17;;;8.00;99.90;;;;;;5123188;28;20452;-74
2020/12/14 09:31:47;;;;;;;21.27;19.80;;;8.00;99.90;;;;;;5117243;28;20569;-74
2020/12/14 09:34:14;;;;;;;20.00;18.77;;;8.00;99.90;;;;;;5117012;28;20462;-74
2020/12/14 09:36:41;;;;;;;20.37;18.97;;;8.10;99.90;;;;;;5121947;28;20468;-74
2020/12/14 09:39:08;;;;;;;21.00;19.20;;;8.10;99.90;;;;;;5122145;28;20529;-74
2020/12/14 09:41:35;;;;;;;21.43;19.50;;;8.20;99.90;;;;;;5116511;28;20957;-74
2020/12/14 09:44:01;;;;;;;20.30;19.00;;;8.20;99.90;;;;;;5111094;28;21017;-74
2020/12/14 09:46:28;;;;;;;19.83;18.40;;;8.30;99.90;;;;;;5124183;27;20469;-74
2020/12/14 09:48:56;;;;;;;22.07;20.00;;;8.40;99.90;;;;;;5117745;27;20491;-74
2020/12/14 09:51:23;;;;;;;21.10;19.60;;;8.40;99.90;;;;;;5120376;27;20459;-75
2020/12/14 09:53:50;;;;;;;20.83;19.33;;;8.40;99.90;;;;;;5113795;27;20573;-76
2020/12/14 09:56:17;;;;;;;21.60;19.90;;;8.40;99.90;;;;;;5115226;27;21329;-77
2020/12/14 09:58:44;;;;;;;21.53;19.77;;;8.40;99.90;;;;;;5119352;27;20491;-75
2020/12/14 10:01:10;;;;;;;21.40;19.80;;;8.40;99.90;;;;;;5114311;27;20839;-75
2020/12/14 10:03:37;;;;;;;20.87;19.57;;;8.40;99.90;;;;;;5113178;27;20491;-75
2020/12/14 10:06:04;;;;;;;21.23;19.73;;;8.40;99.90;;;;;;5115042;27;20461;-75
2020/12/14 10:08:31;;;;;;;21.63;19.83;;;8.40;99.90;;;;;;5115407;27;20456;-76
2020/12/14 10:10:57;;;;;;;20.60;19.30;;;8.40;99.90;;;;;;5113816;27;20456;-76
2020/12/14 10:13:24;;;;;;;20.47;18.83;;;8.40;99.90;;;;;;5113486;27;20760;-73
2020/12/14 10:15:51;;;;;;;20.70;19.20;;;8.40;99.90;;;;;;5112388;27;20468;-74
2020/12/14 10:18:18;;;;;;;20.33;19.03;;;8.40;99.90;;;;;;5114792;27;20463;-75
2020/12/14 10:20:44;;;;;;;20.47;18.70;;;8.50;99.90;;;;;;5115330;27;20459;-74
2020/12/14 10:23:12;;;;;;;20.40;19.10;;;8.50;99.90;;;;;;5113502;27;20542;-76
2020/12/14 10:25:39;;;;;;;20.20;18.60;;;8.50;99.90;;;;;;5117076;27;20460;-74
2020/12/14 10:28:06;;;;;;;20.47;19.00;;;8.50;99.90;;;;;;5112483;27;20494;-74
2020/12/14 10:30:33;;;;;;;21.03;19.43;;;8.50;99.90;;;;;;5121321;27;20481;-73
2020/12/14 10:33:00;;;;;;;21.03;19.50;;;8.60;99.90;;;;;;5120539;27;20452;-74
2020/12/14 10:35:26;;;;;;;20.17;18.77;;;8.70;99.90;;;;;;5114395;27;20460;-77
2020/12/14 10:37:52;;;;;;;20.47;18.97;;;8.70;99.90;;;;;;5116648;27;20461;-76
2020/12/14 10:40:19;;;;;;;21.83;20.13;;;8.80;99.90;;;;;;5117608;27;20460;-75
2020/12/14 10:42:46;;;;;;;20.13;18.73;;;8.90;99.90;;;;;;5118055;27;20484;-75
2020/12/14 10:45:13;;;;;;;21.53;19.80;;;9.00;99.90;;;;;;5118245;27;20579;-77
2020/12/14 10:47:40;;;;;;;21.00;19.60;;;9.10;99.90;;;;;;5121379;27;20495;-74
2020/12/14 10:50:06;;;;;;;20.77;19.00;;;9.20;99.90;;;;;;5109143;27;20456;-77
2020/12/14 10:52:33;;;;;;;22.13;20.53;;;9.20;99.90;;;;;;5113229;27;20975;-74
2020/12/14 10:55:00;;;;;;;23.33;21.40;;;9.30;99.90;;;;;;5117292;27;20468;-75
2020/12/14 10:57:27;;;;;;;22.37;20.77;;;9.30;99.90;;;;;;5111220;27;20940;-75
2020/12/14 10:59:55;;;;;;;21.63;20.00;;;9.30;99.90;;;;;;5118505;27;20508;-75
2020/12/14 11:02:22;;;;;;;22.17;20.60;;;9.40;99.90;;;;;;5117456;27;20461;-76
2020/12/14 11:04:48;;;;;;;23.03;21.33;;;9.50;99.90;;;;;;5119765;27;20918;-75
2020/12/14 11:07:15;;;;;;;22.77;21.13;;;9.60;99.90;;;;;;5123004;27;20471;-75
2020/12/14 11:09:41;;;;;;;22.60;21.10;;;9.70;99.90;;;;;;5119436;27;20464;-75
2020/12/14 11:12:08;;;;;;;23.20;21.60;;;9.80;99.90;;;;;;5119484;27;20605;-75
2020/12/14 11:14:35;;;;;;;23.83;21.70;;;10.00;99.90;;;;;;5122622;27;20921;-74
2020/12/14 11:17:02;;;;;;;23.63;21.73;;;10.00;99.90;;;;;;5123831;27;20461;-74
2020/12/14 11:19:28;;;;;;;22.17;20.53;;;10.00;99.90;;;;;;5127144;27;20467;-75
2020/12/14 11:21:55;;;;;;;23.00;21.30;;;10.10;99.90;;;;;;5124514;27;20460;-74
2020/12/14 11:24:22;;;;;;;23.33;21.53;;;10.20;99.90;;;;;;5121477;27;21337;-74
2020/12/14 11:26:49;;;;;;;24.47;22.37;;;10.20;99.90;;;;;;5119842;27;20471;-75
2020/12/14 11:29:16;;;;;;;22.23;20.57;;;10.20;99.90;;;;;;5118198;27;20460;-74
2020/12/14 11:31:44;;;;;;;24.80;22.20;;;10.20;99.90;;;;;;5118000;27;20990;-77
2020/12/14 11:34:11;;;;;;;23.30;21.50;;;10.20;99.90;;;;;;5121323;27;21012;-76
2020/12/14 11:36:37;;;;;;;22.73;20.93;;;10.30;99.90;;;;;;5113012;27;21206;-76
2020/12/14 11:39:04;;;;;;;24.50;22.70;;;10.40;99.90;;;;;;5117186;27;20925;-75
2020/12/14 11:41:31;;;;;;;23.20;21.27;;;10.40;99.90;;;;;;5120026;27;20953;-76
2020/12/14 11:43:57;;;;;;;22.70;21.03;;;10.40;99.90;;;;;;5121045;27;20488;-79
2020/12/14 11:46:24;;;;;;;21.73;19.63;;;10.40;99.90;;;;;;5118291;27;20448;-75
2020/12/14 11:48:51;;;;;;;21.60;19.77;;;10.40;99.90;;;;;;5122760;27;20625;-75
2020/12/14 11:51:17;;;;;;;21.50;19.80;;;10.50;99.90;;;;;;5120518;27;20469;-75
2020/12/14 11:53:44;;;;;;;20.80;19.17;;;10.60;99.90;;;;;;5114596;27;20469;-75
2020/12/14 11:56:11;;;;;;;22.33;20.70;;;10.70;99.90;;;;;;5118769;27;20461;-75
2020/12/14 11:58:38;;;;;;;23.43;21.13;;;10.90;99.90;;;;;;5118789;27;20472;-76
2020/12/14 12:01:04;;;;;;;20.50;18.67;;;11.70;99.90;;;;;;5119062;27;20571;-76
2020/12/14 12:03:31;;;;;;;20.77;19.37;;;12.50;99.90;;;;;;5117657;27;21024;-75
2020/12/14 12:05:58;;;;;;;20.13;18.73;;;12.70;99.90;;;;;;5116213;27;20492;-78
2020/12/14 12:08:24;;;;;;;21.63;19.60;;;12.90;99.90;;;;;;5118374;27;20453;-75
2020/12/14 12:10:52;;;;;;;21.20;19.50;;;12.80;99.90;;;;;;5118320;27;20472;-75
2020/12/14 12:13:18;;;;;;;21.47;19.83;;;12.50;99.90;;;;;;5117392;27;20479;-75
2020/12/14 12:15:45;;;;;;;21.00;19.40;;;12.30;99.90;;;;;;5115643;27;21094;-74
2020/12/14 12:18:11;;;;;;;20.90;19.40;;;12.10;99.90;;;;;;5117415;27;20472;-76
2020/12/14 12:20:38;;;;;;;21.90;19.90;;;11.90;99.90;;;;;;5111743;27;20939;-74
2020/12/14 12:23:05;;;;;;;21.77;19.80;;;11.90;99.90;;;;;;5118466;27;20493;-76
2020/12/14 12:25:31;;;;;;;20.37;18.30;;;11.80;99.90;;;;;;5113962;27;20487;-74
2020/12/14 12:27:57;;;;;;;20.17;18.63;;;12.10;99.90;;;;;;5117473;27;20823;-75
2020/12/14 12:30:25;;;;;;;20.07;18.27;;;12.20;99.90;;;;;;5113667;27;21443;-75
2020/12/14 12:32:53;;;;;;;19.90;18.13;;;12.20;99.90;;;;;;5116986;27;20463;-74
2020/12/14 12:35:20;;;;;;;19.70;18.30;;;12.10;99.90;;;;;;5114568;27;20464;-77
2020/12/14 12:37:47;;;;;;;18.70;17.33;;;12.30;99.90;;;;;;5108686;27;20559;-74
2020/12/14 12:40:14;;;;;;;18.27;17.17;;;12.60;99.90;;;;;;5113699;27;20492;-75